createdAt,value
2022-08-03T00:02:20.116Z,20.83
2022-08-03T00:04:48.492Z,20.76
2022-08-03T00:07:17.146Z,20.74
2022-08-03T00:09:45.916Z,20.85
2022-08-03T00:12:14.674Z,20.78
2022-08-03T00:14:43.128Z,20.61
2022-08-03T00:17:11.844Z,20.75
2022-08-03T00:19:40.095Z,20.74
2022-08-03T00:22:08.353Z,20.79
2022-08-03T00:24:36.634Z,20.82
2022-08-03T00:27:04.877Z,20.88
2022-08-03T00:29:33.130Z,20.95
2022-08-03T00:32:21.374Z,21.04
2022-08-03T00:34:57.780Z,21.02
2022-08-03T00:37:41.401Z,21.03
2022-08-03T00:40:13.695Z,21.09
2022-08-03T00:43:08.892Z,21.04
2022-08-03T00:45:41.806Z,20.86
2022-08-03T00:48:32.215Z,20.78
2022-08-03T00:51:01.450Z,20.81
2022-08-03T00:53:30.078Z,20.68
2022-08-03T00:55:59.087Z,20.79
2022-08-03T00:58:27.394Z,20.77
2022-08-03T01:00:55.673Z,20.82
2022-08-03T01:03:23.920Z,20.85
2022-08-03T01:05:51.996Z,20.86
2022-08-03T01:08:55.963Z,20.87
2022-08-03T01:12:04.095Z,20.98
2022-08-03T01:14:51.670Z,20.94
2022-08-03T01:17:34.463Z,21.07
2022-08-03T01:20:09.664Z,20.98
2022-08-03T01:23:08.922Z,21.10
2022-08-03T01:26:14.702Z,21.05
2022-08-03T01:29:01.046Z,21.11
2022-08-03T01:31:34.948Z,21.07
2022-08-03T01:34:31.469Z,21.12
2022-08-03T01:37:06.138Z,21.06
2022-08-03T01:39:38.829Z,20.95
2022-08-03T01:42:11.660Z,21.15
2022-08-03T01:44:45.269Z,21.14
2022-08-03T01:47:16.246Z,21.11
2022-08-03T01:49:46.564Z,21.07
2022-08-03T01:52:20.210Z,21.24
2022-08-03T01:54:52.661Z,21.35
2022-08-03T01:57:25.365Z,21.14
2022-08-03T01:59:59.111Z,21.06
2022-08-03T02:02:33.972Z,21.14
2022-08-03T02:05:11.112Z,21.00
2022-08-03T02:07:42.563Z,21.17
2022-08-03T02:10:16.175Z,21.07
2022-08-03T02:13:06.786Z,21.10
2022-08-03T02:15:38.411Z,21.38
2022-08-03T02:18:10.774Z,21.25
2022-08-03T02:20:43.409Z,21.39
2022-08-03T02:23:12.043Z,21.13
2022-08-03T02:25:57.408Z,21.18
2022-08-03T02:28:37.226Z,21.30
2022-08-03T02:31:15.624Z,21.39
2022-08-03T02:33:51.301Z,21.08
2022-08-03T02:36:29.020Z,21.24
2022-08-03T02:39:01.689Z,21.35
2022-08-03T02:41:37.175Z,21.42
2022-08-03T02:44:10.900Z,21.47
2022-08-03T02:46:45.288Z,21.41
2022-08-03T02:49:42.055Z,21.45
2022-08-03T02:52:13.211Z,21.51
2022-08-03T02:54:48.727Z,21.49
2022-08-03T02:57:20.205Z,21.40
2022-08-03T02:59:50.620Z,21.50
2022-08-03T03:02:20.961Z,21.19
2022-08-03T03:05:50.918Z,21.37
2022-08-03T03:07:51.370Z,21.39
2022-08-03T03:10:25.947Z,21.49
2022-08-03T03:15:29.149Z,21.51
2022-08-03T03:18:00.348Z,21.48
2022-08-03T03:20:30.682Z,21.39
2022-08-03T03:23:01.176Z,21.58
2022-08-03T03:25:32.755Z,21.68
2022-08-03T03:28:02.976Z,21.68
2022-08-03T03:30:31.541Z,21.72
2022-08-03T03:32:59.974Z,21.68
2022-08-03T03:35:28.604Z,21.68
2022-08-03T03:37:57.333Z,21.66
2022-08-03T03:40:26.477Z,21.61
2022-08-03T03:45:24.610Z,21.37
2022-08-03T03:47:53.072Z,21.12
2022-08-03T03:50:24.095Z,20.99
2022-08-03T03:52:52.320Z,20.85
2022-08-03T03:55:20.536Z,20.75
2022-08-03T03:57:48.716Z,20.69
2022-08-03T04:00:19.673Z,20.61
2022-08-03T04:02:48.158Z,20.56
2022-08-03T04:05:34.798Z,20.66
2022-08-03T04:08:30.699Z,20.54
2022-08-03T04:11:20.681Z,20.61
2022-08-03T04:14:17.982Z,20.71
2022-08-03T04:16:59.119Z,20.74
2022-08-03T04:19:49.346Z,20.72
2022-08-03T04:22:27.869Z,20.81
2022-08-03T04:25:04.167Z,20.93
2022-08-03T04:27:38.976Z,21.06
2022-08-03T04:30:09.248Z,21.08
2022-08-03T04:32:45.462Z,21.15
2022-08-03T04:35:14.419Z,21.36
2022-08-03T04:37:49.282Z,21.38
2022-08-03T04:40:29.767Z,21.29
2022-08-03T04:43:00.747Z,21.27
2022-08-03T04:45:31.570Z,21.53
2022-08-03T04:48:02.099Z,21.52
2022-08-03T04:50:31.424Z,21.30
2022-08-03T04:53:06.717Z,21.52
2022-08-03T04:55:36.645Z,21.53
2022-08-03T04:58:05.203Z,21.61
2022-08-03T05:00:33.643Z,21.53
2022-08-03T05:03:01.897Z,21.68
2022-08-03T05:05:49.846Z,21.71
2022-08-03T05:08:20.591Z,21.49
2022-08-03T05:10:59.410Z,21.75
2022-08-03T05:13:27.960Z,21.72
2022-08-03T05:15:56.234Z,21.71
2022-08-03T05:18:24.516Z,21.67
2022-08-03T05:20:52.804Z,21.85
2022-08-03T05:23:21.049Z,21.59
2022-08-03T05:25:50.012Z,21.56
2022-08-03T05:28:18.918Z,21.64
2022-08-03T05:30:47.165Z,21.63
2022-08-03T05:33:15.454Z,21.54
2022-08-03T05:36:00.434Z,21.66
2022-08-03T05:38:35.004Z,21.79
2022-08-03T05:41:21.890Z,21.91
2022-08-03T05:43:54.244Z,21.94
2022-08-03T05:46:23.885Z,21.94
2022-08-03T05:48:52.304Z,21.86
2022-08-03T05:51:20.681Z,22.18
2022-08-03T05:53:49.189Z,22.03
2022-08-03T05:56:17.417Z,22.21
2022-08-03T05:58:48.461Z,22.19
2022-08-03T06:01:17.494Z,22.18
2022-08-03T06:03:46.676Z,22.44
2022-08-03T06:06:15.880Z,22.44
2022-08-03T06:08:46.077Z,22.59
2022-08-03T06:11:14.493Z,22.76
2022-08-03T06:13:43.324Z,22.69
2022-08-03T06:16:11.722Z,22.78
2022-08-03T06:18:41.125Z,22.82
2022-08-03T06:21:15.595Z,22.91
2022-08-03T06:23:52.391Z,23.00
2022-08-03T06:26:25.449Z,23.23
2022-08-03T06:28:55.013Z,23.44
2022-08-03T06:31:32.872Z,23.48
2022-08-03T06:34:32.544Z,23.47
2022-08-03T06:36:58.469Z,23.65
2022-08-03T06:39:30.301Z,23.74
2022-08-03T06:41:58.817Z,23.79
2022-08-03T06:44:27.168Z,23.83
2022-08-03T06:46:55.858Z,23.90
2022-08-03T06:49:24.223Z,23.99
2022-08-03T06:52:05.826Z,24.25
2022-08-03T06:54:36.114Z,24.49
2022-08-03T06:57:05.098Z,24.44
2022-08-03T07:00:07.870Z,24.53
2022-08-03T07:02:22.080Z,24.55
2022-08-03T07:04:50.547Z,24.75
2022-08-03T07:07:19.486Z,24.70
2022-08-03T07:09:56.349Z,24.82
2022-08-03T07:12:30.995Z,25.23
2022-08-03T07:15:02.648Z,25.19
2022-08-03T07:17:36.072Z,25.36
2022-08-03T07:20:08.791Z,25.24
2022-08-03T07:22:37.255Z,25.33
2022-08-03T07:25:07.311Z,25.49
2022-08-03T07:27:35.723Z,25.70
2022-08-03T07:30:07.726Z,25.73
2022-08-03T07:32:36.085Z,25.75
2022-08-03T07:35:25.267Z,25.77
2022-08-03T07:37:55.163Z,25.85
2022-08-03T07:40:23.627Z,25.95
2022-08-03T07:42:56.387Z,26.12
2022-08-03T07:45:26.485Z,26.31
2022-08-03T07:47:54.749Z,26.32
2022-08-03T07:50:23.410Z,26.54
2022-08-03T07:52:53.102Z,26.67
2022-08-03T07:55:25.145Z,26.62
2022-08-03T07:58:10.060Z,26.82
2022-08-03T08:00:39.518Z,26.81
2022-08-03T08:03:08.484Z,26.95
2022-08-03T08:05:37.081Z,27.09
2022-08-03T08:08:06.766Z,27.26
2022-08-03T08:10:35.509Z,27.47
2022-08-03T08:13:04.991Z,27.48
2022-08-03T08:15:33.226Z,27.54
2022-08-03T08:18:02.566Z,27.72
2022-08-03T08:20:36.527Z,27.79
2022-08-03T08:23:27.604Z,28.13
2022-08-03T08:25:57.102Z,28.34
2022-08-03T08:28:32.249Z,28.39
2022-08-03T08:31:02.372Z,28.81
2022-08-03T08:34:02.646Z,29.06
2022-08-03T08:36:19.404Z,29.01
2022-08-03T08:38:48.015Z,29.63
2022-08-03T08:41:17.432Z,29.66
2022-08-03T08:43:45.633Z,29.05
2022-08-03T08:46:23.238Z,29.39
2022-08-03T08:48:54.507Z,29.90
2022-08-03T08:51:54.758Z,30.42
2022-08-03T08:54:22.900Z,30.61
2022-08-03T08:56:53.555Z,30.99
2022-08-03T08:59:22.879Z,31.26
2022-08-03T09:01:58.563Z,31.35
2022-08-03T09:04:29.546Z,31.75
2022-08-03T09:07:18.740Z,31.91
2022-08-03T09:10:10.469Z,31.44
2022-08-03T09:12:47.420Z,31.54
2022-08-03T09:15:24.518Z,31.77
2022-08-03T09:17:59.597Z,31.79
2022-08-03T09:20:32.370Z,32.06
2022-08-03T09:23:44.590Z,31.22
2022-08-03T09:26:00.083Z,32.01
2022-08-03T09:29:00.595Z,32.29
2022-08-03T09:31:35.895Z,32.25
2022-08-03T09:34:11.140Z,32.93
2022-08-03T09:36:43.041Z,32.61
2022-08-03T09:39:18.004Z,33.24
2022-08-03T09:42:06.818Z,33.40
2022-08-03T09:44:42.285Z,33.37
2022-08-03T09:47:13.101Z,33.64
2022-08-03T09:49:55.356Z,33.74
2022-08-03T09:52:39.163Z,33.48
2022-08-03T09:56:33.818Z,33.29
2022-08-03T09:58:12.813Z,34.14
2022-08-03T10:01:07.969Z,34.07
2022-08-03T10:04:03.888Z,33.65
2022-08-03T10:06:33.129Z,33.99
2022-08-03T10:09:11.081Z,34.08
2022-08-03T10:11:42.627Z,33.91
2022-08-03T10:14:19.633Z,34.00
2022-08-03T10:16:49.499Z,34.49
2022-08-03T10:19:18.290Z,34.78
2022-08-03T10:22:01.195Z,34.27
2022-08-03T10:24:34.249Z,34.35
2022-08-03T10:27:07.536Z,34.40
2022-08-03T10:29:45.770Z,32.84
2022-08-03T10:32:38.323Z,33.89
2022-08-03T10:35:19.857Z,34.36
2022-08-03T10:37:59.123Z,34.62
2022-08-03T10:40:54.689Z,32.81
2022-08-03T10:43:49.107Z,34.51
2022-08-03T10:46:21.318Z,35.00
2022-08-03T10:48:52.832Z,35.68
2022-08-03T10:51:23.267Z,35.08
2022-08-03T10:53:55.074Z,33.97
2022-08-03T10:56:51.480Z,33.45
2022-08-03T10:59:41.058Z,34.79
2022-08-03T11:02:10.030Z,35.54
2022-08-03T11:04:38.348Z,36.04
2022-08-03T11:07:25.617Z,36.16
2022-08-03T11:09:56.309Z,36.35
2022-08-03T11:12:30.037Z,35.70
2022-08-03T11:15:07.629Z,36.17
2022-08-03T11:17:46.270Z,36.23
2022-08-03T11:20:46.972Z,36.61
2022-08-03T11:23:18.223Z,36.17
2022-08-03T11:26:13.848Z,35.98
2022-08-03T11:28:48.226Z,35.31
2022-08-03T11:31:39.587Z,33.94
2022-08-03T11:34:14.253Z,34.85
2022-08-03T11:37:22.637Z,35.52
2022-08-03T11:39:54.809Z,36.39
2022-08-03T11:42:23.239Z,34.93
2022-08-03T11:44:54.127Z,35.22
2022-08-03T11:47:27.035Z,36.17
2022-08-03T11:50:00.377Z,36.91
2022-08-03T11:52:36.733Z,36.88
2022-08-03T11:55:11.729Z,35.95
2022-08-03T11:59:10.818Z,35.59
2022-08-03T12:00:32.346Z,36.40
2022-08-03T12:03:14.310Z,36.25
2022-08-03T12:05:53.377Z,36.80
2022-08-03T12:08:34.259Z,34.97
2022-08-03T12:11:06.757Z,35.68
2022-08-03T12:14:44.815Z,35.84
2022-08-03T12:16:38.070Z,36.37
2022-08-03T12:19:07.121Z,36.64
2022-08-03T12:21:35.532Z,34.97
2022-08-03T12:24:05.599Z,36.63
2022-08-03T12:26:57.196Z,36.41
2022-08-03T12:29:28.442Z,36.78
2022-08-03T12:31:56.981Z,37.06
2022-08-03T12:34:47.210Z,37.44
2022-08-03T12:37:23.546Z,37.28
2022-08-03T12:40:02.308Z,37.45
2022-08-03T12:42:36.922Z,35.85
2022-08-03T12:45:28.918Z,36.00
2022-08-03T12:48:02.364Z,36.88
2022-08-03T12:50:32.789Z,37.09
2022-08-03T12:53:05.333Z,36.66
2022-08-03T12:55:57.116Z,36.50
2022-08-03T12:58:36.028Z,36.10
2022-08-03T13:01:09.900Z,34.33
2022-08-03T13:03:49.909Z,36.19
2022-08-03T13:06:23.269Z,36.75
2022-08-03T13:09:06.389Z,37.61
2022-08-03T13:11:58.166Z,37.72
2022-08-03T13:14:23.948Z,37.22
2022-08-03T13:16:52.339Z,37.74
2022-08-03T13:19:20.566Z,37.36
2022-08-03T13:22:01.632Z,37.63
2022-08-03T13:24:33.851Z,36.90
2022-08-03T13:27:22.559Z,37.80
2022-08-03T13:29:51.329Z,36.38
2022-08-03T13:32:20.717Z,37.38
2022-08-03T13:34:49.422Z,37.38
2022-08-03T13:37:17.613Z,36.50
2022-08-03T13:39:59.867Z,35.98
2022-08-03T13:42:34.574Z,36.50
2022-08-03T13:45:05.215Z,37.17
2022-08-03T13:47:33.483Z,37.54
2022-08-03T13:50:03.092Z,37.44
2022-08-03T13:52:35.017Z,37.70
2022-08-03T13:55:06.583Z,35.69
2022-08-03T13:58:18.928Z,36.73
2022-08-03T14:00:28.190Z,37.13
2022-08-03T14:03:06.631Z,37.62
2022-08-03T14:05:41.832Z,37.74
2022-08-03T14:08:11.012Z,37.12
2022-08-03T14:10:44.556Z,36.66
2022-08-03T14:13:17.679Z,35.89
2022-08-03T14:15:51.212Z,37.55
2022-08-03T14:18:28.523Z,37.84
2022-08-03T14:21:05.564Z,37.92
2022-08-03T14:23:37.813Z,38.04
2022-08-03T14:26:08.233Z,37.26
2022-08-03T14:28:36.650Z,37.63
2022-08-03T14:31:08.427Z,38.02
2022-08-03T14:33:53.562Z,38.24
2022-08-03T14:36:21.859Z,36.98
2022-08-03T14:38:50.147Z,36.67
2022-08-03T14:41:20.177Z,36.93
2022-08-03T14:44:02.022Z,36.43
2022-08-03T14:46:32.291Z,37.63
2022-08-03T14:50:34.483Z,37.18
2022-08-03T14:51:53.329Z,37.63
2022-08-03T14:54:23.015Z,37.47
2022-08-03T14:56:51.910Z,37.50
2022-08-03T14:59:20.100Z,36.48
2022-08-03T15:02:04.973Z,37.10
2022-08-03T15:04:36.509Z,37.31
2022-08-03T15:07:05.303Z,37.38
2022-08-03T15:09:34.187Z,36.60
2022-08-03T15:12:02.386Z,37.50
2022-08-03T15:14:38.650Z,37.15
2022-08-03T15:17:07.304Z,37.65
2022-08-03T15:20:03.190Z,37.38
2022-08-03T15:22:24.985Z,37.17
2022-08-03T15:26:01.721Z,37.49
2022-08-03T15:28:03.983Z,37.47
2022-08-03T15:30:36.896Z,37.36
2022-08-03T15:33:05.786Z,37.79
2022-08-03T15:35:34.151Z,36.41
2022-08-03T15:38:07.315Z,37.08
2022-08-03T15:40:38.084Z,37.41
2022-08-03T15:43:07.610Z,37.47
2022-08-03T15:45:37.143Z,37.64
2022-08-03T15:48:06.427Z,36.99
2022-08-03T15:50:34.785Z,35.76
2022-08-03T15:53:03.810Z,36.12
2022-08-03T15:55:32.845Z,36.85
2022-08-03T15:59:03.480Z,36.14
2022-08-03T16:00:49.588Z,36.33
2022-08-03T16:03:17.775Z,36.62
2022-08-03T16:05:45.954Z,37.04
2022-08-03T16:08:14.256Z,36.88
2022-08-03T16:10:42.599Z,36.61
2022-08-03T16:13:10.837Z,36.29
2022-08-03T16:15:39.228Z,36.03
2022-08-03T16:18:07.976Z,36.60
2022-08-03T16:20:36.182Z,36.55
2022-08-03T16:23:10.565Z,36.22
2022-08-03T16:25:42.409Z,36.58
2022-08-03T16:28:14.216Z,36.73
2022-08-03T16:30:46.614Z,36.91
2022-08-03T16:33:29.580Z,37.01
2022-08-03T16:35:59.413Z,37.05
2022-08-03T16:38:27.723Z,36.98
2022-08-03T16:40:55.919Z,37.00
2022-08-03T16:43:24.812Z,36.73
2022-08-03T16:45:53.126Z,36.46
2022-08-03T16:48:21.675Z,36.49
2022-08-03T16:50:50.005Z,36.86
2022-08-03T16:53:18.728Z,36.95
2022-08-03T16:56:03.709Z,36.87
2022-08-03T16:58:42.075Z,37.20
2022-08-03T17:01:22.266Z,36.99
2022-08-03T17:04:02.412Z,36.68
2022-08-03T17:06:45.112Z,36.52
2022-08-03T17:09:18.998Z,36.61
2022-08-03T17:11:51.335Z,36.88
2022-08-03T17:14:28.410Z,36.94
2022-08-03T17:17:01.639Z,37.22
2022-08-03T17:19:32.831Z,36.82
2022-08-03T17:22:15.989Z,35.53
2022-08-03T17:24:51.058Z,36.14
2022-08-03T17:28:50.617Z,35.77
2022-08-03T17:30:20.232Z,36.30
2022-08-03T17:32:56.677Z,35.57
2022-08-03T17:35:35.516Z,35.94
2022-08-03T17:38:11.908Z,35.92
2022-08-03T17:40:50.034Z,36.20
2022-08-03T17:44:14.442Z,36.08
2022-08-03T17:46:10.822Z,36.28
2022-08-03T17:48:42.092Z,36.15
2022-08-03T17:51:46.535Z,36.22
2022-08-03T17:55:55.443Z,36.27
2022-08-03T17:58:05.787Z,36.17
2022-08-03T18:00:59.572Z,36.17
2022-08-03T18:03:57.933Z,36.13
2022-08-03T18:06:34.597Z,35.78
2022-08-03T18:09:05.333Z,35.74
2022-08-03T18:11:58.075Z,35.62
2022-08-03T18:14:57.726Z,35.57
2022-08-03T18:17:55.904Z,35.30
2022-08-03T18:20:33.030Z,35.05
2022-08-03T18:23:07.151Z,34.73
2022-08-03T18:25:45.251Z,34.26
2022-08-03T18:28:19.793Z,34.47
2022-08-03T18:30:55.118Z,34.00
2022-08-03T18:34:17.503Z,33.87
2022-08-03T18:39:12.407Z,33.34
2022-08-03T18:41:44.565Z,33.43
2022-08-03T18:44:46.476Z,33.04
2022-08-03T18:47:23.264Z,33.09
2022-08-03T18:50:13.858Z,32.73
2022-08-03T18:53:22.585Z,32.65
2022-08-03T18:56:38.279Z,32.52
2022-08-03T18:59:44.557Z,32.24
2022-08-03T19:02:42.367Z,31.86
2022-08-03T19:05:23.998Z,31.97
2022-08-03T19:08:33.718Z,31.71
2022-08-03T19:11:07.884Z,31.65
2022-08-03T19:13:50.192Z,31.63
2022-08-03T19:16:35.353Z,31.42
2022-08-03T19:19:14.438Z,31.20
2022-08-03T19:21:45.954Z,31.08
2022-08-03T19:24:23.316Z,30.87
2022-08-03T19:26:56.042Z,30.82
2022-08-03T19:29:25.252Z,30.80
2022-08-03T19:32:21.360Z,30.65
2022-08-03T19:34:51.744Z,30.57
2022-08-03T19:37:22.393Z,30.44
2022-08-03T19:39:56.547Z,30.43
2022-08-03T19:42:32.136Z,30.36
2022-08-03T19:45:13.939Z,30.47
2022-08-03T19:47:56.504Z,30.36
2022-08-03T19:50:29.950Z,30.37
2022-08-03T19:53:01.869Z,30.16
2022-08-03T19:55:32.803Z,29.99
2022-08-03T19:58:05.768Z,29.90
2022-08-03T20:00:40.412Z,29.95
2022-08-03T20:03:22.176Z,29.80
2022-08-03T20:05:54.269Z,29.78
2022-08-03T20:08:24.164Z,29.72
2022-08-03T20:10:53.927Z,29.67
2022-08-03T20:13:22.206Z,29.54
2022-08-03T20:15:56.593Z,29.64
2022-08-03T20:18:25.367Z,29.49
2022-08-03T20:20:56.541Z,29.43
2022-08-03T20:23:28.087Z,29.28
2022-08-03T20:26:09.614Z,29.19
2022-08-03T20:28:52.146Z,28.77
2022-08-03T20:31:32.078Z,28.69
2022-08-03T20:34:06.486Z,28.49
2022-08-03T20:36:34.678Z,28.50
2022-08-03T20:39:07.765Z,28.40
2022-08-03T20:41:37.316Z,28.33
2022-08-03T20:44:06.711Z,28.30
2022-08-03T20:46:50.274Z,28.38
2022-08-03T20:49:24.106Z,28.16
2022-08-03T20:51:53.622Z,28.29
2022-08-03T20:54:30.703Z,28.41
2022-08-03T20:57:03.885Z,28.37
2022-08-03T20:59:47.589Z,28.18
2022-08-03T21:05:10.354Z,27.73
2022-08-03T21:08:05.139Z,27.87
2022-08-03T21:10:42.039Z,27.92
2022-08-03T21:12:58.650Z,33.74
2022-08-03T21:13:07.897Z,27.87
2022-08-03T21:13:30.041Z,27.80
2022-08-03T21:16:11.551Z,27.70
2022-08-03T21:18:51.859Z,27.49
2022-08-03T21:21:23.940Z,27.38
2022-08-03T21:23:55.869Z,27.47
2022-08-03T21:26:27.197Z,27.48
2022-08-03T21:28:57.061Z,27.20
2022-08-03T21:31:26.710Z,27.27
2022-08-03T21:33:58.282Z,27.16
2022-08-03T21:36:28.537Z,27.23
2022-08-03T21:38:58.659Z,27.23
2022-08-03T21:41:30.746Z,27.00
2022-08-03T21:44:00.800Z,26.96
2022-08-03T21:46:36.050Z,26.94
2022-08-03T21:50:07.321Z,26.87
2022-08-03T21:52:00.956Z,26.93
2022-08-03T21:54:44.156Z,26.72
2022-08-03T21:57:22.441Z,26.66
2022-08-03T22:00:00.505Z,26.70
2022-08-03T22:02:32.503Z,26.68
2022-08-03T22:05:04.694Z,26.61
2022-08-03T22:07:35.060Z,26.59
2022-08-03T22:10:06.476Z,26.60
2022-08-03T22:12:35.523Z,26.65
2022-08-03T22:15:09.353Z,26.64
2022-08-03T22:17:55.007Z,26.68
2022-08-03T22:20:25.817Z,26.52
2022-08-03T22:22:57.340Z,26.45
2022-08-03T22:25:39.335Z,26.46
2022-08-03T22:28:12.266Z,26.37
2022-08-03T22:30:42.702Z,26.10
2022-08-03T22:33:14.495Z,26.03
2022-08-03T22:35:49.085Z,25.95
2022-08-03T22:38:18.913Z,25.76
2022-08-03T22:40:52.177Z,26.00
2022-08-03T22:43:28.165Z,26.00
2022-08-03T22:46:08.970Z,26.03
2022-08-03T22:48:40.982Z,26.07
2022-08-03T22:51:10.632Z,26.03
2022-08-03T22:53:40.179Z,26.09
2022-08-03T22:56:08.983Z,26.06
2022-08-03T22:58:37.456Z,25.98
2022-08-03T23:01:11.823Z,25.95
2022-08-03T23:04:02.062Z,25.74
2022-08-03T23:06:38.064Z,25.64
2022-08-03T23:09:11.928Z,25.64
2022-08-03T23:11:45.675Z,25.53
2022-08-03T23:14:18.729Z,25.75
2022-08-03T23:16:50.525Z,25.72
2022-08-03T23:19:26.110Z,25.44
2022-08-03T23:22:03.427Z,25.46
2022-08-03T23:24:36.696Z,25.59
2022-08-03T23:27:07.385Z,25.65
2022-08-03T23:29:38.798Z,25.63
2022-08-03T23:32:07.511Z,25.63
2022-08-03T23:34:58.467Z,25.51
2022-08-03T23:37:27.016Z,25.40
2022-08-03T23:39:57.696Z,25.26
2022-08-03T23:42:27.365Z,25.34
2022-08-03T23:44:59.480Z,25.28
2022-08-03T23:47:46.374Z,25.08
2022-08-03T23:50:16.873Z,25.17
2022-08-03T23:53:09.772Z,25.18
2022-08-03T23:56:13.291Z,24.76
2022-08-03T23:58:54.375Z,24.89
